Terminal Aerodrome Forecast
Issued by NWS Binghamton, NY

Home | Current Version | Previous Version | Text Only | Print | Product List | Glossary On
Versions: 1 2 3 4 5 6 7 8 9 10 11 12 13 14 15 16 17 18 19
000
FTUS41 KBGM 032322
TAFSYR
TAF
KSYR 032322Z 0400/0424 VRB02KT P6SM FEW250
     FM040800 VRB03KT P6SM BKN035 OVC100
      TEMPO 0408/0412 6SM -SHRA
     FM041600 20007KT P6SM BKN035 OVC120
      TEMPO 0416/0420 6SM -SHRA
     FM042200 25006KT 6SM -SHRA BKN030=

USA.gov is the U.S. government's official web portal to all federal, state and local government web resources and services.